AAL1368 KRDU-KLGA
Flight info
| Callsign | AAL1368 |
|---|---|
| Flight time | 0h 53m |
| Altitude | 33000 |
| Route | BEXGO5 BOUSY DCT GEARS Q87 HURTS PROUD2 |
| Aircraft | A320/M-DGVW/C |
Departure
| Time | 2026-05-08 01:35 |
|---|---|
| Airport | Raleigh-Durham International Airport (KRDU) |
Arrival
| Time | 2026-05-08 02:28 |
|---|---|
| Airport | LaGuardia Airport (KLGA) |
| Time | Latitude | Longitude | Altitude | Speed | Heading |
|---|---|---|---|---|---|
| 2026-05-08 01:25 | 35.87971 | -78.79104 | 391 ft | 0 kts | 222° |
| 2026-05-08 01:26 | 35.87976 | -78.79098 | 392 ft | 1 kts | 222° |
| 2026-05-08 01:26 | 35.87983 | -78.79090 | 392 ft | 1 kts | 222° |
| 2026-05-08 01:26 | 35.87990 | -78.79083 | 393 ft | 0 kts | 222° |
| 2026-05-08 01:26 | 35.88000 | -78.79072 | 393 ft | 2 kts | 222° |
| 2026-05-08 01:27 | 35.88010 | -78.79061 | 389 ft | 2 kts | 222° |
| 2026-05-08 01:27 | 35.88020 | -78.79049 | 387 ft | 2 kts | 200° |
| 2026-05-08 01:27 | 35.88033 | -78.79049 | 393 ft | 2 kts | 122° |
| 2026-05-08 01:27 | 35.88041 | -78.79063 | 393 ft | 2 kts | 122° |
| 2026-05-08 01:28 | 35.88048 | -78.79077 | 393 ft | 2 kts | 122° |
| 2026-05-08 01:28 | 35.88056 | -78.79093 | 392 ft | 2 kts | 115° |
| 2026-05-08 01:28 | 35.88061 | -78.79111 | 392 ft | 2 kts | 88° |
| 2026-05-08 01:28 | 35.88059 | -78.79129 | 392 ft | 2 kts | 68° |
| 2026-05-08 01:29 | 35.88050 | -78.79150 | 392 ft | 3 kts | 49° |
| 2026-05-08 01:29 | 35.88048 | -78.79155 | 392 ft | 0 kts | 44° |
| 2026-05-08 01:31 | 35.88079 | -78.79140 | 393 ft | 11 kts | 2° |
| 2026-05-08 01:31 | 35.88076 | -78.79215 | 393 ft | 15 kts | 212° |
| 2026-05-08 01:31 | 35.87974 | -78.79349 | 391 ft | 27 kts | 229° |
| 2026-05-08 01:31 | 35.87830 | -78.79523 | 386 ft | 32 kts | 221° |
| 2026-05-08 01:32 | 35.87670 | -78.79728 | 380 ft | 35 kts | 224° |
| 2026-05-08 01:32 | 35.87505 | -78.79931 | 377 ft | 32 kts | 226° |
| 2026-05-08 01:32 | 35.87421 | -78.80041 | 376 ft | 13 kts | 227° |
| 2026-05-08 01:32 | 35.87397 | -78.80072 | 376 ft | 1 kts | 227° |
| 2026-05-08 01:33 | 35.87391 | -78.80080 | 376 ft | 2 kts | 227° |
| 2026-05-08 01:33 | 35.87382 | -78.80095 | 376 ft | 3 kts | 238° |
| 2026-05-08 01:33 | 35.87379 | -78.80104 | 376 ft | 0 kts | 244° |
| 2026-05-08 01:33 | 35.87378 | -78.80105 | 377 ft | 0 kts | 244° |
| 2026-05-08 01:34 | 35.87381 | -78.80139 | 377 ft | 12 kts | 286° |
| 2026-05-08 01:34 | 35.87455 | -78.80148 | 376 ft | 15 kts | 25° |
| 2026-05-08 01:34 | 35.87684 | -78.79889 | 378 ft | 82 kts | 46° |
| 2026-05-08 01:35 | 35.88241 | -78.79213 | 394 ft | 141 kts | 47° |
| 2026-05-08 01:35 | 35.89022 | -78.78258 | 703 ft | 161 kts | 46° |
| 2026-05-08 01:35 | 35.89742 | -78.77296 | 1584 ft | 147 kts | 46° |
| 2026-05-08 01:35 | 35.90395 | -78.76362 | 2338 ft | 142 kts | 44° |
| 2026-05-08 01:36 | 35.91069 | -78.75366 | 2716 ft | 161 kts | 45° |
| 2026-05-08 01:36 | 35.91879 | -78.74164 | 2760 ft | 208 kts | 45° |
| 2026-05-08 01:36 | 35.92847 | -78.72723 | 3391 ft | 220 kts | 45° |
| 2026-05-08 01:36 | 35.93956 | -78.71070 | 3338 ft | 269 kts | 45° |
| 2026-05-08 01:37 | 35.95296 | -78.69404 | 3874 ft | 284 kts | 32° |
| 2026-05-08 01:37 | 35.96935 | -78.67980 | 4633 ft | 292 kts | 31° |
| 2026-05-08 01:37 | 35.98615 | -78.66523 | 5393 ft | 300 kts | 31° |
| 2026-05-08 01:37 | 36.00344 | -78.65018 | 6180 ft | 304 kts | 31° |
| 2026-05-08 01:38 | 36.02109 | -78.63479 | 6862 ft | 310 kts | 31° |
| 2026-05-08 01:38 | 36.03827 | -78.61971 | 8084 ft | 301 kts | 31° |
| 2026-05-08 01:38 | 36.05562 | -78.60451 | 8865 ft | 311 kts | 30° |
| 2026-05-08 01:38 | 36.07362 | -78.58879 | 9608 ft | 322 kts | 30° |
| 2026-05-08 01:39 | 36.09219 | -78.57256 | 10302 ft | 331 kts | 30° |
| 2026-05-08 01:39 | 36.11125 | -78.55588 | 10984 ft | 341 kts | 30° |
| 2026-05-08 01:39 | 36.13082 | -78.53873 | 11682 ft | 350 kts | 30° |
| 2026-05-08 01:39 | 36.15101 | -78.52101 | 12405 ft | 359 kts | 30° |
| 2026-05-08 01:40 | 36.17160 | -78.50295 | 13124 ft | 367 kts | 30° |
| 2026-05-08 01:40 | 36.19269 | -78.48445 | 13859 ft | 375 kts | 30° |
| 2026-05-08 01:40 | 36.21417 | -78.46563 | 14530 ft | 383 kts | 29° |
| 2026-05-08 01:40 | 36.23613 | -78.44639 | 15214 ft | 389 kts | 29° |
| 2026-05-08 01:41 | 36.25836 | -78.42685 | 15891 ft | 396 kts | 29° |
| 2026-05-08 01:41 | 36.28103 | -78.40686 | 16617 ft | 402 kts | 29° |
| 2026-05-08 01:41 | 36.30382 | -78.38621 | 17344 ft | 408 kts | 30° |
| 2026-05-08 01:41 | 36.32668 | -78.36494 | 18083 ft | 414 kts | 30° |
| 2026-05-08 01:42 | 36.34970 | -78.34324 | 18753 ft | 418 kts | 30° |
| 2026-05-08 01:42 | 36.37263 | -78.32151 | 19400 ft | 422 kts | 30° |
| 2026-05-08 01:42 | 36.39608 | -78.29934 | 20069 ft | 426 kts | 29° |
| 2026-05-08 01:42 | 36.41981 | -78.27703 | 20754 ft | 428 kts | 28° |
| 2026-05-08 01:43 | 36.44370 | -78.25469 | 21454 ft | 431 kts | 28° |
| 2026-05-08 01:43 | 36.46774 | -78.23226 | 22172 ft | 433 kts | 28° |
| 2026-05-08 01:43 | 36.49182 | -78.20979 | 22943 ft | 434 kts | 27° |
| 2026-05-08 01:43 | 36.51596 | -78.18724 | 23686 ft | 434 kts | 27° |
| 2026-05-08 01:44 | 36.54006 | -78.16460 | 24320 ft | 433 kts | 26° |
| 2026-05-08 01:44 | 36.56399 | -78.14199 | 24975 ft | 430 kts | 26° |
| 2026-05-08 01:44 | 36.58760 | -78.11961 | 25640 ft | 424 kts | 25° |
| 2026-05-08 01:44 | 36.61088 | -78.09747 | 26318 ft | 417 kts | 24° |
| 2026-05-08 01:45 | 36.63378 | -78.07569 | 26811 ft | 415 kts | 23° |
| 2026-05-08 01:45 | 36.65655 | -78.05419 | 27111 ft | 417 kts | 22° |
| 2026-05-08 01:45 | 36.67982 | -78.03233 | 27392 ft | 420 kts | 22° |
| 2026-05-08 01:45 | 36.70321 | -78.01032 | 27677 ft | 423 kts | 22° |
| 2026-05-08 01:46 | 36.72671 | -77.98813 | 27951 ft | 425 kts | 22° |
| 2026-05-08 01:46 | 36.75036 | -77.96580 | 28220 ft | 428 kts | 22° |
| 2026-05-08 01:46 | 36.77418 | -77.94326 | 28491 ft | 430 kts | 22° |
| 2026-05-08 01:46 | 36.79803 | -77.92062 | 28736 ft | 433 kts | 22° |
| 2026-05-08 01:47 | 36.82122 | -77.89553 | 28999 ft | 453 kts | 34° |
| 2026-05-08 01:47 | 36.84212 | -77.86542 | 29254 ft | 465 kts | 40° |
| 2026-05-08 01:47 | 36.86154 | -77.83262 | 29514 ft | 474 kts | 45° |
| 2026-05-08 01:48 | 36.89781 | -77.76278 | 30024 ft | 483 kts | 47° |
| 2026-05-08 01:48 | 36.91586 | -77.72726 | 30248 ft | 485 kts | 46° |
| 2026-05-08 01:48 | 36.93434 | -77.69191 | 30479 ft | 486 kts | 45° |
| 2026-05-08 01:48 | 36.95332 | -77.65689 | 30679 ft | 488 kts | 44° |
| 2026-05-08 01:49 | 36.97288 | -77.62188 | 30798 ft | 493 kts | 44° |
| 2026-05-08 01:49 | 36.99281 | -77.58674 | 30925 ft | 498 kts | 44° |
| 2026-05-08 01:49 | 37.01301 | -77.55116 | 31061 ft | 504 kts | 44° |
| 2026-05-08 01:49 | 37.03309 | -77.51556 | 31182 ft | 510 kts | 44° |
| 2026-05-08 01:50 | 37.05353 | -77.47896 | 31314 ft | 516 kts | 45° |
| 2026-05-08 01:50 | 37.07413 | -77.44178 | 31443 ft | 522 kts | 45° |
| 2026-05-08 01:50 | 37.09489 | -77.40428 | 31562 ft | 525 kts | 43° |
| 2026-05-08 01:50 | 37.11863 | -77.37039 | 31692 ft | 512 kts | 32° |
| 2026-05-08 01:51 | 37.14422 | -77.33907 | 31821 ft | 517 kts | 31° |
| 2026-05-08 01:51 | 37.17022 | -77.30771 | 31949 ft | 521 kts | 31° |
| 2026-05-08 01:51 | 37.19655 | -77.27619 | 32079 ft | 525 kts | 31° |
| 2026-05-08 01:51 | 37.22312 | -77.24440 | 32200 ft | 530 kts | 31° |
| 2026-05-08 01:52 | 37.24992 | -77.21228 | 32335 ft | 535 kts | 32° |
| 2026-05-08 01:52 | 37.27684 | -77.17984 | 32458 ft | 539 kts | 32° |
| 2026-05-08 01:52 | 37.30399 | -77.14699 | 32591 ft | 543 kts | 32° |
| 2026-05-08 01:52 | 37.33126 | -77.11391 | 32722 ft | 547 kts | 32° |
| 2026-05-08 01:53 | 37.38624 | -77.04708 | 32964 ft | 554 kts | 32° |
| 2026-05-08 01:53 | 37.44193 | -76.97936 | 32971 ft | 563 kts | 32° |
| 2026-05-08 01:54 | 37.47196 | -76.94906 | 32973 ft | 543 kts | 18° |
| 2026-05-08 01:54 | 37.50471 | -76.92707 | 32979 ft | 532 kts | 12° |
| 2026-05-08 01:54 | 37.56024 | -76.89103 | 32977 ft | 540 kts | 14° |
| 2026-05-08 01:55 | 37.62683 | -76.84598 | 32979 ft | 546 kts | 15° |
| 2026-05-08 01:55 | 37.66031 | -76.82309 | 33115 ft | 545 kts | 15° |
| 2026-05-08 01:55 | 37.69344 | -76.80030 | 33514 ft | 539 kts | 14° |
| 2026-05-08 01:56 | 37.72611 | -76.77767 | 33920 ft | 533 kts | 14° |
| 2026-05-08 01:56 | 37.75850 | -76.75508 | 34269 ft | 528 kts | 14° |
| 2026-05-08 01:56 | 37.79064 | -76.73294 | 34392 ft | 527 kts | 13° |
| 2026-05-08 01:56 | 37.82330 | -76.71159 | 34226 ft | 528 kts | 12° |
| 2026-05-08 01:57 | 37.85617 | -76.69065 | 33818 ft | 529 kts | 12° |
| 2026-05-08 01:57 | 37.88869 | -76.67001 | 33376 ft | 530 kts | 12° |
| 2026-05-08 01:57 | 37.92226 | -76.64894 | 33027 ft | 533 kts | 13° |
| 2026-05-08 01:57 | 37.95522 | -76.62842 | 32928 ft | 537 kts | 13° |
| 2026-05-08 01:58 | 38.02240 | -76.58631 | 32952 ft | 536 kts | 13° |
| 2026-05-08 01:58 | 38.05544 | -76.56534 | 32636 ft | 524 kts | 14° |
| 2026-05-08 01:58 | 38.08750 | -76.54468 | 32640 ft | 515 kts | 14° |
| 2026-05-08 01:59 | 38.15120 | -76.50369 | 32644 ft | 508 kts | 14° |
| 2026-05-08 01:59 | 38.21432 | -76.46349 | 32647 ft | 506 kts | 13° |
| 2026-05-08 02:00 | 38.27739 | -76.42332 | 32649 ft | 508 kts | 15° |
| 2026-05-08 02:00 | 38.30774 | -76.39888 | 32656 ft | 525 kts | 26° |
| 2026-05-08 02:00 | 38.33700 | -76.37086 | 32653 ft | 526 kts | 26° |
| 2026-05-08 02:01 | 38.39477 | -76.31438 | 32657 ft | 527 kts | 27° |
| 2026-05-08 02:01 | 38.45262 | -76.25721 | 32637 ft | 527 kts | 27° |
| 2026-05-08 02:02 | 38.51067 | -76.20013 | 32644 ft | 526 kts | 27° |
| 2026-05-08 02:02 | 38.56876 | -76.14317 | 32646 ft | 526 kts | 27° |
| 2026-05-08 02:03 | 38.62655 | -76.08628 | 32772 ft | 518 kts | 27° |
| 2026-05-08 02:03 | 38.65501 | -76.05856 | 32929 ft | 510 kts | 25° |
| 2026-05-08 02:03 | 38.68343 | -76.03171 | 32955 ft | 506 kts | 25° |
| 2026-05-08 02:04 | 38.74042 | -75.97940 | 32955 ft | 504 kts | 24° |
| 2026-05-08 02:04 | 38.79765 | -75.92673 | 32954 ft | 505 kts | 25° |
| 2026-05-08 02:05 | 38.85411 | -75.87380 | 32938 ft | 507 kts | 25° |
| 2026-05-08 02:05 | 38.91092 | -75.82004 | 32939 ft | 507 kts | 25° |
| 2026-05-08 02:06 | 38.96791 | -75.76622 | 32926 ft | 507 kts | 25° |
| 2026-05-08 02:06 | 39.02486 | -75.71245 | 32931 ft | 508 kts | 25° |
| 2026-05-08 02:07 | 39.08192 | -75.65841 | 32939 ft | 509 kts | 25° |
| 2026-05-08 02:07 | 39.13864 | -75.60455 | 32945 ft | 509 kts | 25° |
| 2026-05-08 02:08 | 39.19579 | -75.55017 | 32943 ft | 509 kts | 26° |
| 2026-05-08 02:08 | 39.25257 | -75.49642 | 32937 ft | 508 kts | 25° |
| 2026-05-08 02:09 | 39.28181 | -75.46985 | 32502 ft | 507 kts | 24° |
| 2026-05-08 02:09 | 39.31057 | -75.44450 | 31952 ft | 505 kts | 23° |
| 2026-05-08 02:09 | 39.33965 | -75.41928 | 31410 ft | 503 kts | 23° |
| 2026-05-08 02:09 | 39.36870 | -75.39410 | 30874 ft | 502 kts | 24° |
| 2026-05-08 02:10 | 39.39758 | -75.36889 | 30359 ft | 502 kts | 24° |
| 2026-05-08 02:10 | 39.42650 | -75.34337 | 29818 ft | 502 kts | 25° |
| 2026-05-08 02:10 | 39.45534 | -75.31771 | 29212 ft | 502 kts | 25° |
| 2026-05-08 02:10 | 39.48410 | -75.29194 | 28623 ft | 503 kts | 26° |
| 2026-05-08 02:11 | 39.51286 | -75.26605 | 28034 ft | 504 kts | 26° |
| 2026-05-08 02:11 | 39.54154 | -75.23977 | 27456 ft | 505 kts | 27° |
| 2026-05-08 02:11 | 39.57013 | -75.21306 | 26889 ft | 506 kts | 28° |
| 2026-05-08 02:11 | 39.59857 | -75.18615 | 26340 ft | 507 kts | 28° |
| 2026-05-08 02:12 | 39.62705 | -75.15907 | 25785 ft | 508 kts | 29° |
| 2026-05-08 02:12 | 39.65552 | -75.13202 | 25253 ft | 508 kts | 29° |
| 2026-05-08 02:12 | 39.68417 | -75.10501 | 24734 ft | 508 kts | 28° |
| 2026-05-08 02:12 | 39.71310 | -75.07887 | 24221 ft | 507 kts | 27° |
| 2026-05-08 02:13 | 39.74251 | -75.05343 | 23720 ft | 506 kts | 26° |
| 2026-05-08 02:13 | 39.77194 | -75.02868 | 23178 ft | 504 kts | 26° |
| 2026-05-08 02:13 | 39.80123 | -75.00420 | 22603 ft | 498 kts | 26° |
| 2026-05-08 02:13 | 39.83020 | -74.97974 | 22098 ft | 491 kts | 27° |
| 2026-05-08 02:14 | 39.85812 | -74.95584 | 21615 ft | 484 kts | 27° |
| 2026-05-08 02:14 | 39.88591 | -74.93129 | 21132 ft | 479 kts | 28° |
| 2026-05-08 02:14 | 39.91300 | -74.90638 | 20653 ft | 476 kts | 33° |
| 2026-05-08 02:14 | 39.93699 | -74.87647 | 20181 ft | 478 kts | 44° |
| 2026-05-08 02:15 | 39.95933 | -74.84464 | 19715 ft | 474 kts | 44° |
| 2026-05-08 02:15 | 39.98148 | -74.81299 | 19256 ft | 470 kts | 44° |
| 2026-05-08 02:15 | 40.00344 | -74.78155 | 18811 ft | 467 kts | 44° |
| 2026-05-08 02:15 | 40.02523 | -74.75025 | 18359 ft | 465 kts | 45° |
| 2026-05-08 02:16 | 40.04683 | -74.71917 | 17883 ft | 462 kts | 45° |
| 2026-05-08 02:16 | 40.06841 | -74.68808 | 17375 ft | 459 kts | 45° |
| 2026-05-08 02:16 | 40.08986 | -74.65722 | 16872 ft | 457 kts | 44° |
| 2026-05-08 02:16 | 40.11118 | -74.62661 | 16378 ft | 453 kts | 44° |
| 2026-05-08 02:17 | 40.13228 | -74.59625 | 15901 ft | 450 kts | 44° |
| 2026-05-08 02:17 | 40.15295 | -74.56648 | 15416 ft | 447 kts | 44° |
| 2026-05-08 02:17 | 40.17378 | -74.53643 | 14952 ft | 443 kts | 44° |
| 2026-05-08 02:17 | 40.19431 | -74.50680 | 14493 ft | 439 kts | 44° |
| 2026-05-08 02:18 | 40.21503 | -74.47765 | 14035 ft | 434 kts | 42° |
| 2026-05-08 02:18 | 40.23628 | -74.44975 | 13569 ft | 429 kts | 40° |
| 2026-05-08 02:18 | 40.25773 | -74.42288 | 13061 ft | 424 kts | 39° |
| 2026-05-08 02:18 | 40.27916 | -74.39663 | 12560 ft | 419 kts | 39° |
| 2026-05-08 02:19 | 40.30033 | -74.37077 | 12068 ft | 414 kts | 39° |
| 2026-05-08 02:19 | 40.32111 | -74.34512 | 11581 ft | 408 kts | 40° |
| 2026-05-08 02:19 | 40.34123 | -74.31989 | 11094 ft | 391 kts | 40° |
| 2026-05-08 02:19 | 40.36029 | -74.29566 | 10624 ft | 373 kts | 40° |
| 2026-05-08 02:20 | 40.37880 | -74.27205 | 10160 ft | 370 kts | 41° |
| 2026-05-08 02:20 | 40.39719 | -74.24859 | 9683 ft | 366 kts | 41° |
| 2026-05-08 02:20 | 40.41541 | -74.22542 | 9179 ft | 363 kts | 41° |
| 2026-05-08 02:20 | 40.43345 | -74.20249 | 8659 ft | 359 kts | 41° |
| 2026-05-08 02:21 | 40.45134 | -74.17976 | 8169 ft | 356 kts | 41° |
| 2026-05-08 02:21 | 40.46902 | -74.15724 | 7676 ft | 353 kts | 42° |
| 2026-05-08 02:21 | 40.48636 | -74.13510 | 7199 ft | 350 kts | 42° |
| 2026-05-08 02:21 | 40.50370 | -74.11295 | 6720 ft | 342 kts | 42° |
| 2026-05-08 02:22 | 40.52108 | -74.09214 | 6243 ft | 326 kts | 35° |
| 2026-05-08 02:22 | 40.53900 | -74.07543 | 5755 ft | 314 kts | 32° |
| 2026-05-08 02:22 | 40.55711 | -74.05986 | 5261 ft | 303 kts | 31° |
| 2026-05-08 02:22 | 40.57447 | -74.04548 | 4783 ft | 294 kts | 31° |
| 2026-05-08 02:23 | 40.59166 | -74.03135 | 4289 ft | 286 kts | 31° |
| 2026-05-08 02:23 | 40.60832 | -74.01760 | 3804 ft | 279 kts | 31° |
| 2026-05-08 02:23 | 40.62447 | -74.00414 | 3320 ft | 272 kts | 32° |
| 2026-05-08 02:23 | 40.64016 | -73.99098 | 3022 ft | 258 kts | 32° |
| 2026-05-08 02:24 | 40.65458 | -73.97886 | 3009 ft | 234 kts | 32° |
| 2026-05-08 02:24 | 40.66775 | -73.96768 | 2884 ft | 217 kts | 32° |
| 2026-05-08 02:24 | 40.68003 | -73.95708 | 2800 ft | 205 kts | 32° |
| 2026-05-08 02:24 | 40.69173 | -73.94691 | 2618 ft | 197 kts | 33° |
| 2026-05-08 02:25 | 40.70171 | -73.93519 | 2423 ft | 187 kts | 47° |
| 2026-05-08 02:25 | 40.71015 | -73.92304 | 2237 ft | 171 kts | 46° |
| 2026-05-08 02:25 | 40.71684 | -73.91086 | 2050 ft | 161 kts | 59° |
| 2026-05-08 02:25 | 40.72102 | -73.89740 | 1861 ft | 158 kts | 72° |
| 2026-05-08 02:26 | 40.72350 | -73.88336 | 1656 ft | 156 kts | 75° |
| 2026-05-08 02:26 | 40.72590 | -73.86959 | 1452 ft | 156 kts | 75° |
| 2026-05-08 02:26 | 40.72838 | -73.85557 | 1246 ft | 155 kts | 73° |
| 2026-05-08 02:26 | 40.73335 | -73.84335 | 1043 ft | 153 kts | 46° |
| 2026-05-08 02:27 | 40.74213 | -73.83543 | 835 ft | 152 kts | 18° |
| 2026-05-08 02:27 | 40.75243 | -73.83423 | 642 ft | 152 kts | 351° |
| 2026-05-08 02:27 | 40.76213 | -73.83969 | 436 ft | 154 kts | 323° |
| 2026-05-08 02:27 | 40.76880 | -73.85059 | 174 ft | 155 kts | 301° |
| 2026-05-08 02:28 | 40.77442 | -73.86214 | 18 ft | 139 kts | 303° |
| 2026-05-08 02:28 | 40.77850 | -73.87058 | 20 ft | 73 kts | 301° |
| 2026-05-08 02:28 | 40.77964 | -73.87296 | 20 ft | 23 kts | 292° |
| 2026-05-08 02:28 | 40.77933 | -73.87423 | 20 ft | 3 kts | 220° |
| 2026-05-08 02:29 | 40.77916 | -73.87440 | 21 ft | 4 kts | 213° |
| 2026-05-08 02:29 | 40.77873 | -73.87473 | 22 ft | 7 kts | 202° |
| 2026-05-08 02:29 | 40.77844 | -73.87439 | 22 ft | 6 kts | 128° |
| 2026-05-08 02:29 | 40.77838 | -73.87431 | 22 ft | 2 kts | 128° |
| 2026-05-08 02:30 | 40.77827 | -73.87412 | 23 ft | 4 kts | 128° |
| 2026-05-08 02:30 | 40.77798 | -73.87401 | 23 ft | 7 kts | 168° |
| 2026-05-08 02:30 | 40.77750 | -73.87412 | 22 ft | 7 kts | 195° |
| 2026-05-08 02:30 | 40.77698 | -73.87403 | 21 ft | 8 kts | 194° |
| 2026-05-08 02:31 | 40.77671 | -73.87411 | 22 ft | 2 kts | 183° |
| 2026-05-08 02:31 | 40.77655 | -73.87402 | 22 ft | 3 kts | 142° |
| 2026-05-08 02:31 | 40.77638 | -73.87387 | 22 ft | 2 kts | 155° |
| 2026-05-08 02:31 | 40.77619 | -73.87372 | 22 ft | 5 kts | 152° |
| 2026-05-08 02:32 | 40.77610 | -73.87368 | 22 ft | 0 kts | 164° |